sensor_id;sensor_type;location;lat;lon;timestamp;temperature;humidity
24460;DHT22;12630;50.860;5.714;2022-10-31T00:02:02;14.90;1.00
24460;DHT22;12630;50.860;5.714;2022-10-31T00:04:29;14.80;1.00
24460;DHT22;12630;50.860;5.714;2022-10-31T00:06:56;14.60;1.00
24460;DHT22;12630;50.860;5.714;2022-10-31T00:09:23;14.40;1.00
24460;DHT22;12630;50.860;5.714;2022-10-31T00:11:53;14.30;1.00
24460;DHT22;12630;50.860;5.714;2022-10-31T00:14:20;14.30;1.00
24460;DHT22;12630;50.860;5.714;2022-10-31T00:16:46;14.20;1.00
24460;DHT22;12630;50.860;5.714;2022-10-31T00:19:13;14.10;1.00
24460;DHT22;12630;50.860;5.714;2022-10-31T00:21:40;14.10;1.00
24460;DHT22;12630;50.860;5.714;2022-10-31T00:24:07;14.10;1.00
24460;DHT22;12630;50.860;5.714;2022-10-31T00:26:34;14.00;1.00
24460;DHT22;12630;50.860;5.714;2022-10-31T00:29:02;14.10;1.00
24460;DHT22;12630;50.860;5.714;2022-10-31T00:31:29;14.20;1.00
24460;DHT22;12630;50.860;5.714;2022-10-31T00:33:56;14.20;1.00
24460;DHT22;12630;50.860;5.714;2022-10-31T00:36:23;14.20;1.00
24460;DHT22;12630;50.860;5.714;2022-10-31T00:38:50;14.20;1.00
24460;DHT22;12630;50.860;5.714;2022-10-31T00:41:17;14.20;1.00
24460;DHT22;12630;50.860;5.714;2022-10-31T00:43:44;14.00;1.00
24460;DHT22;12630;50.860;5.714;2022-10-31T00:46:12;14.00;1.00
24460;DHT22;12630;50.860;5.714;2022-10-31T00:48:39;13.90;1.00
24460;DHT22;12630;50.860;5.714;2022-10-31T00:51:06;13.90;1.00
24460;DHT22;12630;50.860;5.714;2022-10-31T00:53:33;13.90;1.00
24460;DHT22;12630;50.860;5.714;2022-10-31T00:56:00;13.90;1.00
24460;DHT22;12630;50.860;5.714;2022-10-31T00:58:27;13.90;1.00
24460;DHT22;12630;50.860;5.714;2022-10-31T01:00:54;13.90;1.00
24460;DHT22;12630;50.860;5.714;2022-10-31T01:03:23;13.80;1.00
24460;DHT22;12630;50.860;5.714;2022-10-31T01:05:57;13.90;1.00
24460;DHT22;12630;50.860;5.714;2022-10-31T01:08:24;13.90;1.00
24460;DHT22;12630;50.860;5.714;2022-10-31T01:10:58;13.90;1.00
24460;DHT22;12630;50.860;5.714;2022-10-31T01:13:25;13.90;1.00
24460;DHT22;12630;50.860;5.714;2022-10-31T01:15:53;13.90;1.00
24460;DHT22;12630;50.860;5.714;2022-10-31T01:18:20;13.90;1.00
24460;DHT22;12630;50.860;5.714;2022-10-31T01:20:48;13.90;1.00
24460;DHT22;12630;50.860;5.714;2022-10-31T01:23:23;13.80;1.00
24460;DHT22;12630;50.860;5.714;2022-10-31T01:25:49;13.70;1.00
24460;DHT22;12630;50.860;5.714;2022-10-31T01:28:24;13.70;1.00
24460;DHT22;12630;50.860;5.714;2022-10-31T01:30:51;13.70;1.00
24460;DHT22;12630;50.860;5.714;2022-10-31T01:33:18;13.60;1.00
24460;DHT22;12630;50.860;5.714;2022-10-31T01:35:45;13.50;1.00
24460;DHT22;12630;50.860;5.714;2022-10-31T01:38:13;13.40;1.00
24460;DHT22;12630;50.860;5.714;2022-10-31T01:40:40;13.30;1.00
24460;DHT22;12630;50.860;5.714;2022-10-31T01:43:09;13.30;14.90
24460;DHT22;12630;50.860;5.714;2022-10-31T01:45:38;13.40;21.80
24460;DHT22;12630;50.860;5.714;2022-10-31T01:48:06;13.30;27.00
24460;DHT22;12630;50.860;5.714;2022-10-31T01:50:35;13.20;35.60
24460;DHT22;12630;50.860;5.714;2022-10-31T01:53:05;13.20;49.20
24460;DHT22;12630;50.860;5.714;2022-10-31T01:55:34;13.20;57.40
24460;DHT22;12630;50.860;5.714;2022-10-31T01:58:04;13.10;65.90
24460;DHT22;12630;50.860;5.714;2022-10-31T02:00:33;13.10;82.10
24460;DHT22;12630;50.860;5.714;2022-10-31T02:03:00;13.20;95.30
24460;DHT22;12630;50.860;5.714;2022-10-31T02:05:27;13.30;97.20
24460;DHT22;12630;50.860;5.714;2022-10-31T02:07:55;13.40;94.70
24460;DHT22;12630;50.860;5.714;2022-10-31T02:10:24;13.40;90.50
24460;DHT22;12630;50.860;5.714;2022-10-31T02:12:52;13.40;90.20
24460;DHT22;12630;50.860;5.714;2022-10-31T02:15:20;13.40;91.90
24460;DHT22;12630;50.860;5.714;2022-10-31T02:17:47;13.30;93.60
24460;DHT22;12630;50.860;5.714;2022-10-31T02:20:15;13.30;97.60
24460;DHT22;12630;50.860;5.714;2022-10-31T02:22:52;13.30;99.90
24460;DHT22;12630;50.860;5.714;2022-10-31T02:25:28;13.30;99.90
24460;DHT22;12630;50.860;5.714;2022-10-31T02:28:09;13.40;93.90
24460;DHT22;12630;50.860;5.714;2022-10-31T02:30:40;13.30;84.60
24460;DHT22;12630;50.860;5.714;2022-10-31T02:33:14;13.20;86.80
24460;DHT22;12630;50.860;5.714;2022-10-31T02:35:47;13.10;92.00
24460;DHT22;12630;50.860;5.714;2022-10-31T02:38:27;13.00;97.20
24460;DHT22;12630;50.860;5.714;2022-10-31T02:41:01;12.90;99.90
24460;DHT22;12630;50.860;5.714;2022-10-31T02:43:30;12.90;99.90
24460;DHT22;12630;50.860;5.714;2022-10-31T02:46:01;12.80;99.90
24460;DHT22;12630;50.860;5.714;2022-10-31T02:48:32;12.70;99.90
24460;DHT22;12630;50.860;5.714;2022-10-31T02:51:01;12.70;99.90
24460;DHT22;12630;50.860;5.714;2022-10-31T02:53:31;12.70;99.90
24460;DHT22;12630;50.860;5.714;2022-10-31T02:55:59;12.70;99.90
24460;DHT22;12630;50.860;5.714;2022-10-31T02:58:28;12.60;99.90
24460;DHT22;12630;50.860;5.714;2022-10-31T03:01:03;12.70;99.90
24460;DHT22;12630;50.860;5.714;2022-10-31T03:03:34;12.60;99.90
24460;DHT22;12630;50.860;5.714;2022-10-31T03:06:03;12.50;99.90
24460;DHT22;12630;50.860;5.714;2022-10-31T03:08:33;12.50;99.90
24460;DHT22;12630;50.860;5.714;2022-10-31T03:11:01;12.40;99.90
24460;DHT22;12630;50.860;5.714;2022-10-31T03:13:31;12.40;99.90
24460;DHT22;12630;50.860;5.714;2022-10-31T03:16:02;12.40;99.90
24460;DHT22;12630;50.860;5.714;2022-10-31T03:18:32;12.40;99.90
24460;DHT22;12630;50.860;5.714;2022-10-31T03:21:03;12.40;99.90
24460;DHT22;12630;50.860;5.714;2022-10-31T03:23:31;12.30;99.90
24460;DHT22;12630;50.860;5.714;2022-10-31T03:25:58;12.30;99.90
24460;DHT22;12630;50.860;5.714;2022-10-31T03:28:28;12.30;99.90
24460;DHT22;12630;50.860;5.714;2022-10-31T03:30:55;12.40;99.90
24460;DHT22;12630;50.860;5.714;2022-10-31T03:33:24;12.40;99.90
24460;DHT22;12630;50.860;5.714;2022-10-31T03:35:52;12.50;99.90
24460;DHT22;12630;50.860;5.714;2022-10-31T03:38:23;12.50;99.90
24460;DHT22;12630;50.860;5.714;2022-10-31T03:40:50;12.60;99.90
24460;DHT22;12630;50.860;5.714;2022-10-31T03:43:19;12.60;99.90
24460;DHT22;12630;50.860;5.714;2022-10-31T03:45:46;12.70;99.90
24460;DHT22;12630;50.860;5.714;2022-10-31T03:48:14;12.60;99.90
24460;DHT22;12630;50.860;5.714;2022-10-31T03:50:43;12.60;99.90
24460;DHT22;12630;50.860;5.714;2022-10-31T03:53:14;12.70;99.90
24460;DHT22;12630;50.860;5.714;2022-10-31T03:55:46;12.60;99.90
24460;DHT22;12630;50.860;5.714;2022-10-31T03:58:16;12.60;99.90
24460;DHT22;12630;50.860;5.714;2022-10-31T04:00:45;12.60;99.90
24460;DHT22;12630;50.860;5.714;2022-10-31T04:03:13;12.60;99.90
24460;DHT22;12630;50.860;5.714;2022-10-31T04:05:41;12.60;99.90
24460;DHT22;12630;50.860;5.714;2022-10-31T04:08:10;12.70;99.90
24460;DHT22;12630;50.860;5.714;2022-10-31T04:10:39;12.70;99.90
24460;DHT22;12630;50.860;5.714;2022-10-31T04:13:09;12.70;99.90
24460;DHT22;12630;50.860;5.714;2022-10-31T04:15:36;12.80;99.90
24460;DHT22;12630;50.860;5.714;2022-10-31T04:18:05;12.80;99.90
24460;DHT22;12630;50.860;5.714;2022-10-31T04:20:32;12.70;99.90
24460;DHT22;12630;50.860;5.714;2022-10-31T04:22:59;12.70;99.90
24460;DHT22;12630;50.860;5.714;2022-10-31T04:25:27;12.60;99.90
24460;DHT22;12630;50.860;5.714;2022-10-31T04:27:54;12.50;99.90
24460;DHT22;12630;50.860;5.714;2022-10-31T04:30:22;12.50;99.90
24460;DHT22;12630;50.860;5.714;2022-10-31T04:32:49;12.40;99.90
24460;DHT22;12630;50.860;5.714;2022-10-31T04:35:16;12.40;99.90
24460;DHT22;12630;50.860;5.714;2022-10-31T04:37:43;12.30;99.90
24460;DHT22;12630;50.860;5.714;2022-10-31T04:40:10;12.30;99.90
24460;DHT22;12630;50.860;5.714;2022-10-31T04:42:37;12.30;99.90
24460;DHT22;12630;50.860;5.714;2022-10-31T04:45:05;12.30;99.90
24460;DHT22;12630;50.860;5.714;2022-10-31T04:47:33;12.30;99.90
24460;DHT22;12630;50.860;5.714;2022-10-31T04:50:00;12.30;99.90
24460;DHT22;12630;50.860;5.714;2022-10-31T04:52:27;12.20;99.90
24460;DHT22;12630;50.860;5.714;2022-10-31T04:54:54;12.20;99.90
24460;DHT22;12630;50.860;5.714;2022-10-31T04:57:21;12.10;99.90
24460;DHT22;12630;50.860;5.714;2022-10-31T04:59:48;12.10;99.90
24460;DHT22;12630;50.860;5.714;2022-10-31T05:02:15;12.10;99.90
24460;DHT22;12630;50.860;5.714;2022-10-31T05:04:43;12.10;99.90
24460;DHT22;12630;50.860;5.714;2022-10-31T05:07:10;12.00;99.90
24460;DHT22;12630;50.860;5.714;2022-10-31T05:09:37;12.00;99.90
24460;DHT22;12630;50.860;5.714;2022-10-31T05:12:04;12.00;99.90
24460;DHT22;12630;50.860;5.714;2022-10-31T05:14:31;12.10;99.90
24460;DHT22;12630;50.860;5.714;2022-10-31T05:16:58;12.30;99.90
24460;DHT22;12630;50.860;5.714;2022-10-31T05:19:25;12.40;99.90
24460;DHT22;12630;50.860;5.714;2022-10-31T05:21:53;12.50;99.90
24460;DHT22;12630;50.860;5.714;2022-10-31T05:24:20;12.50;99.90
24460;DHT22;12630;50.860;5.714;2022-10-31T05:26:48;12.50;99.90
24460;DHT22;12630;50.860;5.714;2022-10-31T05:29:15;12.40;99.90
24460;DHT22;12630;50.860;5.714;2022-10-31T05:31:42;12.40;99.90
24460;DHT22;12630;50.860;5.714;2022-10-31T05:34:09;12.30;99.90
24460;DHT22;12630;50.860;5.714;2022-10-31T05:36:35;12.30;99.90
24460;DHT22;12630;50.860;5.714;2022-10-31T05:39:04;12.20;99.90
24460;DHT22;12630;50.860;5.714;2022-10-31T05:41:31;12.20;99.90
24460;DHT22;12630;50.860;5.714;2022-10-31T05:43:58;12.20;99.90
24460;DHT22;12630;50.860;5.714;2022-10-31T05:46:25;12.20;99.90
24460;DHT22;12630;50.860;5.714;2022-10-31T05:48:52;12.20;99.90
24460;DHT22;12630;50.860;5.714;2022-10-31T05:51:19;12.20;99.90
24460;DHT22;12630;50.860;5.714;2022-10-31T05:53:45;12.20;99.90
24460;DHT22;12630;50.860;5.714;2022-10-31T05:56:14;12.20;99.90
24460;DHT22;12630;50.860;5.714;2022-10-31T05:58:41;12.20;99.90
24460;DHT22;12630;50.860;5.714;2022-10-31T06:01:08;12.20;99.90
24460;DHT22;12630;50.860;5.714;2022-10-31T06:03:35;12.10;99.90
24460;DHT22;12630;50.860;5.714;2022-10-31T06:06:02;12.10;99.90
24460;DHT22;12630;50.860;5.714;2022-10-31T06:08:29;12.10;99.90
24460;DHT22;12630;50.860;5.714;2022-10-31T06:10:56;12.10;99.90
24460;DHT22;12630;50.860;5.714;2022-10-31T06:13:24;12.00;99.90
24460;DHT22;12630;50.860;5.714;2022-10-31T06:15:51;11.90;99.90
24460;DHT22;12630;50.860;5.714;2022-10-31T06:18:18;11.90;99.90
24460;DHT22;12630;50.860;5.714;2022-10-31T06:20:45;11.80;99.90
24460;DHT22;12630;50.860;5.714;2022-10-31T06:23:12;11.80;99.90
24460;DHT22;12630;50.860;5.714;2022-10-31T06:25:38;11.70;99.90
24460;DHT22;12630;50.860;5.714;2022-10-31T06:28:05;11.90;99.90
24460;DHT22;12630;50.860;5.714;2022-10-31T06:30:34;11.90;99.90
24460;DHT22;12630;50.860;5.714;2022-10-31T06:33:01;11.90;99.90
24460;DHT22;12630;50.860;5.714;2022-10-31T06:35:28;11.90;99.90
24460;DHT22;12630;50.860;5.714;2022-10-31T06:37:55;12.00;99.90
24460;DHT22;12630;50.860;5.714;2022-10-31T06:40:22;12.00;99.90
24460;DHT22;12630;50.860;5.714;2022-10-31T06:42:55;12.10;99.90
24460;DHT22;12630;50.860;5.714;2022-10-31T06:45:22;12.00;99.90
24460;DHT22;12630;50.860;5.714;2022-10-31T06:47:51;12.10;99.90
24460;DHT22;12630;50.860;5.714;2022-10-31T06:50:19;12.20;99.90
24460;DHT22;12630;50.860;5.714;2022-10-31T06:52:49;12.20;99.90
24460;DHT22;12630;50.860;5.714;2022-10-31T06:55:16;12.20;99.90
24460;DHT22;12630;50.860;5.714;2022-10-31T06:57:48;12.30;99.90
24460;DHT22;12630;50.860;5.714;2022-10-31T07:00:16;12.30;99.90
24460;DHT22;12630;50.860;5.714;2022-10-31T07:02:43;12.30;99.90
24460;DHT22;12630;50.860;5.714;2022-10-31T07:05:11;12.30;99.90
24460;DHT22;12630;50.860;5.714;2022-10-31T07:07:38;12.30;99.90
24460;DHT22;12630;50.860;5.714;2022-10-31T07:10:05;12.20;99.90
24460;DHT22;12630;50.860;5.714;2022-10-31T07:12:32;12.30;99.90
24460;DHT22;12630;50.860;5.714;2022-10-31T07:14:59;12.30;99.90
24460;DHT22;12630;50.860;5.714;2022-10-31T07:17:26;12.40;99.90
24460;DHT22;12630;50.860;5.714;2022-10-31T07:19:53;12.50;99.90
24460;DHT22;12630;50.860;5.714;2022-10-31T07:22:22;12.60;99.90
24460;DHT22;12630;50.860;5.714;2022-10-31T07:24:49;12.60;99.90
24460;DHT22;12630;50.860;5.714;2022-10-31T07:27:16;12.70;99.90
24460;DHT22;12630;50.860;5.714;2022-10-31T07:29:43;12.70;99.90
24460;DHT22;12630;50.860;5.714;2022-10-31T07:32:10;12.80;99.90
24460;DHT22;12630;50.860;5.714;2022-10-31T07:34:37;12.90;99.90
24460;DHT22;12630;50.860;5.714;2022-10-31T07:37:04;12.90;93.40
24460;DHT22;12630;50.860;5.714;2022-10-31T07:39:32;13.00;90.80
24460;DHT22;12630;50.860;5.714;2022-10-31T07:41:59;13.10;67.20
24460;DHT22;12630;50.860;5.714;2022-10-31T07:44:26;13.30;69.90
24460;DHT22;12630;50.860;5.714;2022-10-31T07:46:53;13.50;34.30
24460;DHT22;12630;50.860;5.714;2022-10-31T07:49:20;13.50;20.70
24460;DHT22;12630;50.860;5.714;2022-10-31T07:51:47;13.70;6.30
24460;DHT22;12630;50.860;5.714;2022-10-31T07:54:14;13.80;1.00
24460;DHT22;12630;50.860;5.714;2022-10-31T07:56:42;13.80;1.00
24460;DHT22;12630;50.860;5.714;2022-10-31T07:59:10;13.90;1.00
24460;DHT22;12630;50.860;5.714;2022-10-31T08:01:37;13.80;1.00
24460;DHT22;12630;50.860;5.714;2022-10-31T08:04:04;13.70;1.00
24460;DHT22;12630;50.860;5.714;2022-10-31T08:06:31;13.80;1.00
24460;DHT22;12630;50.860;5.714;2022-10-31T08:08:59;13.90;1.00
24460;DHT22;12630;50.860;5.714;2022-10-31T08:11:26;14.10;1.00
24460;DHT22;12630;50.860;5.714;2022-10-31T08:13:55;14.10;1.00
24460;DHT22;12630;50.860;5.714;2022-10-31T08:16:22;14.20;1.00
24460;DHT22;12630;50.860;5.714;2022-10-31T08:18:49;14.30;1.00
24460;DHT22;12630;50.860;5.714;2022-10-31T08:21:16;14.30;1.00
24460;DHT22;12630;50.860;5.714;2022-10-31T08:23:43;14.20;1.00
24460;DHT22;12630;50.860;5.714;2022-10-31T08:26:10;14.20;1.00
24460;DHT22;12630;50.860;5.714;2022-10-31T08:28:37;14.20;1.00
24460;DHT22;12630;50.860;5.714;2022-10-31T08:31:05;14.40;1.00
24460;DHT22;12630;50.860;5.714;2022-10-31T08:33:32;14.50;1.00
24460;DHT22;12630;50.860;5.714;2022-10-31T08:35:59;14.60;1.00
24460;DHT22;12630;50.860;5.714;2022-10-31T08:38:26;14.60;1.00
24460;DHT22;12630;50.860;5.714;2022-10-31T08:40:53;14.90;1.00
24460;DHT22;12630;50.860;5.714;2022-10-31T08:43:20;15.20;1.00
24460;DHT22;12630;50.860;5.714;2022-10-31T08:45:48;15.40;99.90
24460;DHT22;12630;50.860;5.714;2022-10-31T08:48:16;15.50;1.00
24460;DHT22;12630;50.860;5.714;2022-10-31T08:50:44;15.60;1.00
24460;DHT22;12630;50.860;5.714;2022-10-31T23:53:55;18.10;1.00
24460;DHT22;12630;50.860;5.714;2022-10-31T23:56:22;18.10;1.00
24460;DHT22;12630;50.860;5.714;2022-10-31T23:58:49;18.10;1.00
